sensor_id;sensor_type;location;lat;lon;timestamp;temperature;humidity
11540;DHT22;5826;54.756;9.192;2023-03-01T00:00:52;3.80;99.90
11540;DHT22;5826;54.756;9.192;2023-03-01T00:03:18;3.80;99.90
11540;DHT22;5826;54.756;9.192;2023-03-01T00:05:46;3.80;99.90
11540;DHT22;5826;54.756;9.192;2023-03-01T00:08:12;3.80;99.90
11540;DHT22;5826;54.756;9.192;2023-03-01T00:10:38;3.80;99.90
11540;DHT22;5826;54.756;9.192;2023-03-01T00:13:03;3.70;99.90
11540;DHT22;5826;54.756;9.192;2023-03-01T00:15:31;3.70;99.90
11540;DHT22;5826;54.756;9.192;2023-03-01T00:17:56;3.70;99.90
11540;DHT22;5826;54.756;9.192;2023-03-01T00:20:22;3.70;99.90
11540;DHT22;5826;54.756;9.192;2023-03-01T00:22:48;3.60;99.90
11540;DHT22;5826;54.756;9.192;2023-03-01T00:25:13;3.70;99.90
11540;DHT22;5826;54.756;9.192;2023-03-01T00:27:39;3.60;99.90
11540;DHT22;5826;54.756;9.192;2023-03-01T00:30:05;3.60;99.90
11540;DHT22;5826;54.756;9.192;2023-03-01T00:32:30;3.60;99.90
11540;DHT22;5826;54.756;9.192;2023-03-01T00:34:56;3.60;99.90
11540;DHT22;5826;54.756;9.192;2023-03-01T00:37:22;3.60;99.90
11540;DHT22;5826;54.756;9.192;2023-03-01T00:39:48;3.60;99.90
11540;DHT22;5826;54.756;9.192;2023-03-01T00:42:13;3.60;99.90
11540;DHT22;5826;54.756;9.192;2023-03-01T00:44:39;3.50;99.90
11540;DHT22;5826;54.756;9.192;2023-03-01T00:47:04;3.50;99.90
11540;DHT22;5826;54.756;9.192;2023-03-01T00:49:30;3.50;99.90
11540;DHT22;5826;54.756;9.192;2023-03-01T00:51:55;3.40;99.90
11540;DHT22;5826;54.756;9.192;2023-03-01T00:54:21;3.40;99.90
11540;DHT22;5826;54.756;9.192;2023-03-01T00:56:46;3.40;99.90
11540;DHT22;5826;54.756;9.192;2023-03-01T00:59:12;3.40;99.90
11540;DHT22;5826;54.756;9.192;2023-03-01T01:01:38;3.30;99.90
11540;DHT22;5826;54.756;9.192;2023-03-01T01:04:06;3.30;99.90
11540;DHT22;5826;54.756;9.192;2023-03-01T01:06:37;3.30;99.90
11540;DHT22;5826;54.756;9.192;2023-03-01T01:09:05;3.40;99.90
11540;DHT22;5826;54.756;9.192;2023-03-01T01:11:32;3.40;99.90
11540;DHT22;5826;54.756;9.192;2023-03-01T01:13:58;3.30;99.90
11540;DHT22;5826;54.756;9.192;2023-03-01T01:16:26;3.30;99.90
11540;DHT22;5826;54.756;9.192;2023-03-01T01:18:52;3.30;99.90
11540;DHT22;5826;54.756;9.192;2023-03-01T01:21:22;3.30;99.90
11540;DHT22;5826;54.756;9.192;2023-03-01T01:23:48;3.30;99.90
11540;DHT22;5826;54.756;9.192;2023-03-01T01:26:20;3.30;99.90
11540;DHT22;5826;54.756;9.192;2023-03-01T01:28:46;3.30;99.90
11540;DHT22;5826;54.756;9.192;2023-03-01T01:31:11;3.30;99.90
11540;DHT22;5826;54.756;9.192;2023-03-01T01:33:38;3.30;99.90
11540;DHT22;5826;54.756;9.192;2023-03-01T01:36:04;3.30;99.90
11540;DHT22;5826;54.756;9.192;2023-03-01T01:38:30;3.30;99.90
11540;DHT22;5826;54.756;9.192;2023-03-01T01:40:56;3.30;99.90
11540;DHT22;5826;54.756;9.192;2023-03-01T01:44:09;3.20;99.90
11540;DHT22;5826;54.756;9.192;2023-03-01T01:46:33;3.10;99.90
11540;DHT22;5826;54.756;9.192;2023-03-01T01:49:04;3.10;99.90
11540;DHT22;5826;54.756;9.192;2023-03-01T01:51:38;3.20;99.90
11540;DHT22;5826;54.756;9.192;2023-03-01T01:54:21;3.10;99.90
11540;DHT22;5826;54.756;9.192;2023-03-01T01:56:53;3.10;99.90
11540;DHT22;5826;54.756;9.192;2023-03-01T01:59:20;3.10;99.90
11540;DHT22;5826;54.756;9.192;2023-03-01T02:01:50;3.10;99.90
11540;DHT22;5826;54.756;9.192;2023-03-01T02:04:16;3.00;99.90
11540;DHT22;5826;54.756;9.192;2023-03-01T02:06:49;2.90;99.90
11540;DHT22;5826;54.756;9.192;2023-03-01T02:09:18;2.80;99.90
11540;DHT22;5826;54.756;9.192;2023-03-01T02:11:45;2.80;99.90
11540;DHT22;5826;54.756;9.192;2023-03-01T02:14:12;2.70;99.90
11540;DHT22;5826;54.756;9.192;2023-03-01T02:16:37;2.80;99.90
11540;DHT22;5826;54.756;9.192;2023-03-01T02:19:04;2.80;99.90
11540;DHT22;5826;54.756;9.192;2023-03-01T02:21:37;2.90;99.90
11540;DHT22;5826;54.756;9.192;2023-03-01T02:24:20;2.90;99.90
11540;DHT22;5826;54.756;9.192;2023-03-01T02:26:52;2.90;99.90
11540;DHT22;5826;54.756;9.192;2023-03-01T02:29:21;2.90;99.90
11540;DHT22;5826;54.756;9.192;2023-03-01T02:31:47;2.90;99.90
11540;DHT22;5826;54.756;9.192;2023-03-01T02:34:15;2.80;99.90
11540;DHT22;5826;54.756;9.192;2023-03-01T02:36:48;2.80;99.90
11540;DHT22;5826;54.756;9.192;2023-03-01T02:39:25;2.80;99.90
11540;DHT22;5826;54.756;9.192;2023-03-01T02:41:53;2.80;99.90
11540;DHT22;5826;54.756;9.192;2023-03-01T02:44:19;2.80;99.90
11540;DHT22;5826;54.756;9.192;2023-03-01T02:46:48;2.80;99.90
11540;DHT22;5826;54.756;9.192;2023-03-01T02:49:32;2.90;99.90
11540;DHT22;5826;54.756;9.192;2023-03-01T02:52:21;2.90;99.90
11540;DHT22;5826;54.756;9.192;2023-03-01T02:54:50;2.90;99.90
11540;DHT22;5826;54.756;9.192;2023-03-01T02:57:18;3.00;99.90
11540;DHT22;5826;54.756;9.192;2023-03-01T02:59:44;3.00;99.90
11540;DHT22;5826;54.756;9.192;2023-03-01T03:02:25;2.90;99.90
11540;DHT22;5826;54.756;9.192;2023-03-01T03:05:03;2.80;99.90
11540;DHT22;5826;54.756;9.192;2023-03-01T03:07:32;2.80;99.90
11540;DHT22;5826;54.756;9.192;2023-03-01T03:09:58;2.80;99.90
11540;DHT22;5826;54.756;9.192;2023-03-01T03:12:24;2.80;99.90
11540;DHT22;5826;54.756;9.192;2023-03-01T03:14:49;2.80;99.90
11540;DHT22;5826;54.756;9.192;2023-03-01T03:17:15;2.70;99.90
11540;DHT22;5826;54.756;9.192;2023-03-01T03:19:40;2.70;99.90
11540;DHT22;5826;54.756;9.192;2023-03-01T03:22:06;2.80;99.90
11540;DHT22;5826;54.756;9.192;2023-03-01T03:24:34;2.80;99.90
11540;DHT22;5826;54.756;9.192;2023-03-01T03:27:04;2.70;99.90
11540;DHT22;5826;54.756;9.192;2023-03-01T03:29:30;2.70;99.90
11540;DHT22;5826;54.756;9.192;2023-03-01T03:31:55;2.70;99.90
11540;DHT22;5826;54.756;9.192;2023-03-01T03:34:21;2.60;99.90
11540;DHT22;5826;54.756;9.192;2023-03-01T03:36:46;2.60;99.90
11540;DHT22;5826;54.756;9.192;2023-03-01T03:39:12;2.60;99.90
11540;DHT22;5826;54.756;9.192;2023-03-01T03:41:37;2.60;99.90
11540;DHT22;5826;54.756;9.192;2023-03-01T03:44:03;2.50;99.90
11540;DHT22;5826;54.756;9.192;2023-03-01T03:46:28;2.50;99.90
11540;DHT22;5826;54.756;9.192;2023-03-01T03:48:54;2.50;99.90
11540;DHT22;5826;54.756;9.192;2023-03-01T03:51:19;2.40;99.90
11540;DHT22;5826;54.756;9.192;2023-03-01T03:53:47;2.40;99.90
11540;DHT22;5826;54.756;9.192;2023-03-01T03:56:13;2.40;99.90
11540;DHT22;5826;54.756;9.192;2023-03-01T03:58:39;2.40;99.90
11540;DHT22;5826;54.756;9.192;2023-03-01T04:01:05;2.40;99.90
11540;DHT22;5826;54.756;9.192;2023-03-01T04:03:31;2.70;99.90
11540;DHT22;5826;54.756;9.192;2023-03-01T04:05:58;2.50;99.90
11540;DHT22;5826;54.756;9.192;2023-03-01T04:08:25;2.50;99.90
11540;DHT22;5826;54.756;9.192;2023-03-01T04:10:53;2.50;99.90
11540;DHT22;5826;54.756;9.192;2023-03-01T04:13:22;3.00;99.90
11540;DHT22;5826;54.756;9.192;2023-03-01T04:15:51;2.50;99.90
11540;DHT22;5826;54.756;9.192;2023-03-01T04:18:18;2.50;99.90
11540;DHT22;5826;54.756;9.192;2023-03-01T04:20:45;2.50;99.90
11540;DHT22;5826;54.756;9.192;2023-03-01T04:23:16;2.40;99.90
11540;DHT22;5826;54.756;9.192;2023-03-01T04:25:55;2.30;99.90
11540;DHT22;5826;54.756;9.192;2023-03-01T04:30:52;2.20;99.90
11540;DHT22;5826;54.756;9.192;2023-03-01T04:33:18;2.30;99.90
11540;DHT22;5826;54.756;9.192;2023-03-01T04:35:44;2.10;99.90
11540;DHT22;5826;54.756;9.192;2023-03-01T04:38:09;2.10;99.90
11540;DHT22;5826;54.756;9.192;2023-03-01T04:40:36;2.00;99.90
11540;DHT22;5826;54.756;9.192;2023-03-01T04:43:02;2.00;99.90
11540;DHT22;5826;54.756;9.192;2023-03-01T04:45:28;2.00;99.90
11540;DHT22;5826;54.756;9.192;2023-03-01T04:47:54;2.00;99.90
11540;DHT22;5826;54.756;9.192;2023-03-01T04:50:20;2.00;99.90
11540;DHT22;5826;54.756;9.192;2023-03-01T04:52:46;1.90;99.90
11540;DHT22;5826;54.756;9.192;2023-03-01T04:55:13;1.90;99.90
11540;DHT22;5826;54.756;9.192;2023-03-01T04:57:39;1.90;99.90
11540;DHT22;5826;54.756;9.192;2023-03-01T05:00:06;1.90;99.90
11540;DHT22;5826;54.756;9.192;2023-03-01T05:02:54;1.90;99.90
11540;DHT22;5826;54.756;9.192;2023-03-01T05:05:22;1.90;99.90
11540;DHT22;5826;54.756;9.192;2023-03-01T05:07:54;1.90;99.90
11540;DHT22;5826;54.756;9.192;2023-03-01T05:10:20;1.90;99.90
11540;DHT22;5826;54.756;9.192;2023-03-01T05:12:46;1.90;99.90
11540;DHT22;5826;54.756;9.192;2023-03-01T05:15:12;1.90;99.90
11540;DHT22;5826;54.756;9.192;2023-03-01T05:17:37;1.80;99.90
11540;DHT22;5826;54.756;9.192;2023-03-01T05:20:03;1.70;99.90
11540;DHT22;5826;54.756;9.192;2023-03-01T05:22:33;1.70;99.90
11540;DHT22;5826;54.756;9.192;2023-03-01T05:24:59;1.70;99.90
11540;DHT22;5826;54.756;9.192;2023-03-01T05:27:25;1.70;99.90
11540;DHT22;5826;54.756;9.192;2023-03-01T05:29:50;1.80;99.90
11540;DHT22;5826;54.756;9.192;2023-03-01T05:32:16;1.80;99.90
11540;DHT22;5826;54.756;9.192;2023-03-01T05:34:41;1.70;99.90
11540;DHT22;5826;54.756;9.192;2023-03-01T05:37:07;2.00;99.90
11540;DHT22;5826;54.756;9.192;2023-03-01T05:39:33;1.70;99.90
11540;DHT22;5826;54.756;9.192;2023-03-01T05:42:00;1.70;99.90
11540;DHT22;5826;54.756;9.192;2023-03-01T05:44:28;1.80;99.90
11540;DHT22;5826;54.756;9.192;2023-03-01T05:46:54;1.70;99.90
11540;DHT22;5826;54.756;9.192;2023-03-01T05:49:21;1.70;99.90
11540;DHT22;5826;54.756;9.192;2023-03-01T05:51:50;1.70;99.90
11540;DHT22;5826;54.756;9.192;2023-03-01T05:54:16;1.70;99.90
11540;DHT22;5826;54.756;9.192;2023-03-01T05:56:43;1.60;99.90
11540;DHT22;5826;54.756;9.192;2023-03-01T05:59:09;1.70;99.90
11540;DHT22;5826;54.756;9.192;2023-03-01T06:01:35;1.70;99.90
11540;DHT22;5826;54.756;9.192;2023-03-01T06:04:01;1.70;99.90
11540;DHT22;5826;54.756;9.192;2023-03-01T06:06:26;1.70;99.90
11540;DHT22;5826;54.756;9.192;2023-03-01T06:08:52;1.80;99.90
11540;DHT22;5826;54.756;9.192;2023-03-01T06:11:19;1.80;99.90
11540;DHT22;5826;54.756;9.192;2023-03-01T06:13:45;2.20;99.90
11540;DHT22;5826;54.756;9.192;2023-03-01T06:16:11;1.80;99.90
11540;DHT22;5826;54.756;9.192;2023-03-01T06:18:37;1.80;99.90
11540;DHT22;5826;54.756;9.192;2023-03-01T06:21:04;1.80;99.90
11540;DHT22;5826;54.756;9.192;2023-03-01T06:23:29;1.70;99.90
11540;DHT22;5826;54.756;9.192;2023-03-01T06:25:55;1.60;99.90
11540;DHT22;5826;54.756;9.192;2023-03-01T06:28:21;1.70;99.90
11540;DHT22;5826;54.756;9.192;2023-03-01T06:30:47;1.60;99.90
11540;DHT22;5826;54.756;9.192;2023-03-01T06:33:13;1.60;99.90
11540;DHT22;5826;54.756;9.192;2023-03-01T06:35:38;1.60;99.90
11540;DHT22;5826;54.756;9.192;2023-03-01T06:38:05;1.70;99.90
11540;DHT22;5826;54.756;9.192;2023-03-01T06:40:31;1.70;99.90
11540;DHT22;5826;54.756;9.192;2023-03-01T06:42:57;1.90;99.90
11540;DHT22;5826;54.756;9.192;2023-03-01T06:45:23;1.80;99.90
11540;DHT22;5826;54.756;9.192;2023-03-01T06:47:49;1.90;99.90
11540;DHT22;5826;54.756;9.192;2023-03-01T06:50:16;2.60;99.90
11540;DHT22;5826;54.756;9.192;2023-03-01T06:52:42;2.00;99.90
11540;DHT22;5826;54.756;9.192;2023-03-01T06:55:10;2.00;99.90
11540;DHT22;5826;54.756;9.192;2023-03-01T06:57:35;2.20;99.90
11540;DHT22;5826;54.756;9.192;2023-03-01T07:00:03;2.20;99.90
11540;DHT22;5826;54.756;9.192;2023-03-01T07:02:28;2.30;99.90
11540;DHT22;5826;54.756;9.192;2023-03-01T07:04:54;2.30;99.90
11540;DHT22;5826;54.756;9.192;2023-03-01T07:07:19;2.30;99.90
11540;DHT22;5826;54.756;9.192;2023-03-01T07:09:46;2.40;99.90
11540;DHT22;5826;54.756;9.192;2023-03-01T07:12:11;2.40;99.90
11540;DHT22;5826;54.756;9.192;2023-03-01T07:14:37;2.40;99.90
11540;DHT22;5826;54.756;9.192;2023-03-01T07:17:02;2.60;99.90
11540;DHT22;5826;54.756;9.192;2023-03-01T07:19:28;2.40;99.90
11540;DHT22;5826;54.756;9.192;2023-03-01T07:21:53;2.40;99.90
11540;DHT22;5826;54.756;9.192;2023-03-01T07:24:21;2.40;99.90
11540;DHT22;5826;54.756;9.192;2023-03-01T07:26:50;2.40;99.90
11540;DHT22;5826;54.756;9.192;2023-03-01T07:29:17;2.50;99.90
11540;DHT22;5826;54.756;9.192;2023-03-01T07:31:43;2.50;99.90
11540;DHT22;5826;54.756;9.192;2023-03-01T07:34:08;2.50;99.90
11540;DHT22;5826;54.756;9.192;2023-03-01T07:36:34;2.60;99.90
11540;DHT22;5826;54.756;9.192;2023-03-01T07:38:59;2.60;99.90
11540;DHT22;5826;54.756;9.192;2023-03-01T07:41:27;2.70;99.90
11540;DHT22;5826;54.756;9.192;2023-03-01T07:43:53;2.80;99.90
11540;DHT22;5826;54.756;9.192;2023-03-01T07:46:18;2.80;99.90
11540;DHT22;5826;54.756;9.192;2023-03-01T07:48:44;2.80;99.90
11540;DHT22;5826;54.756;9.192;2023-03-01T07:51:10;2.80;99.90
11540;DHT22;5826;54.756;9.192;2023-03-01T07:53:35;2.80;99.90
11540;DHT22;5826;54.756;9.192;2023-03-01T07:56:06;2.80;99.90
11540;DHT22;5826;54.756;9.192;2023-03-01T07:58:36;2.90;99.90
11540;DHT22;5826;54.756;9.192;2023-03-01T08:01:11;2.90;99.90
11540;DHT22;5826;54.756;9.192;2023-03-01T08:03:37;3.00;99.90
11540;DHT22;5826;54.756;9.192;2023-03-01T08:06:04;3.00;99.90
11540;DHT22;5826;54.756;9.192;2023-03-01T08:08:31;2.90;99.90
11540;DHT22;5826;54.756;9.192;2023-03-01T08:10:57;2.90;99.90
11540;DHT22;5826;54.756;9.192;2023-03-01T08:13:23;2.90;99.90
11540;DHT22;5826;54.756;9.192;2023-03-01T08:15:49;2.90;99.90
11540;DHT22;5826;54.756;9.192;2023-03-01T08:18:16;2.90;99.90
11540;DHT22;5826;54.756;9.192;2023-03-01T08:20:42;2.90;99.90
11540;DHT22;5826;54.756;9.192;2023-03-01T08:23:07;3.00;99.90
11540;DHT22;5826;54.756;9.192;2023-03-01T08:25:33;3.30;99.90
11540;DHT22;5826;54.756;9.192;2023-03-01T08:27:58;3.00;99.90
11540;DHT22;5826;54.756;9.192;2023-03-01T08:30:24;2.90;99.90
11540;DHT22;5826;54.756;9.192;2023-03-01T08:32:49;2.90;99.90
11540;DHT22;5826;54.756;9.192;2023-03-01T08:35:16;2.90;99.90
11540;DHT22;5826;54.756;9.192;2023-03-01T08:37:41;2.90;99.90
11540;DHT22;5826;54.756;9.192;2023-03-01T08:40:08;2.90;99.90
11540;DHT22;5826;54.756;9.192;2023-03-01T08:42:35;2.90;99.90
11540;DHT22;5826;54.756;9.192;2023-03-01T08:45:01;3.00;99.90
11540;DHT22;5826;54.756;9.192;2023-03-01T08:47:27;3.00;99.90
11540;DHT22;5826;54.756;9.192;2023-03-01T08:49:52;3.10;99.90
11540;DHT22;5826;54.756;9.192;2023-03-01T08:52:19;3.10;99.90
11540;DHT22;5826;54.756;9.192;2023-03-01T08:54:44;3.10;99.90
11540;DHT22;5826;54.756;9.192;2023-03-01T08:57:09;3.20;99.90
11540;DHT22;5826;54.756;9.192;2023-03-01T08:59:35;3.20;99.90
11540;DHT22;5826;54.756;9.192;2023-03-01T09:02:05;3.20;99.90
11540;DHT22;5826;54.756;9.192;2023-03-01T09:04:31;3.30;99.90
11540;DHT22;5826;54.756;9.192;2023-03-01T09:06:56;3.40;99.90
11540;DHT22;5826;54.756;9.192;2023-03-01T09:09:22;3.50;99.90
11540;DHT22;5826;54.756;9.192;2023-03-01T09:11:47;3.60;99.90
11540;DHT22;5826;54.756;9.192;2023-03-01T09:14:15;3.70;99.90
11540;DHT22;5826;54.756;9.192;2023-03-01T09:16:41;3.70;99.90
11540;DHT22;5826;54.756;9.192;2023-03-01T09:19:06;3.70;99.90
11540;DHT22;5826;54.756;9.192;2023-03-01T09:21:32;3.70;99.90
11540;DHT22;5826;54.756;9.192;2023-03-01T09:23:58;3.80;99.90
11540;DHT22;5826;54.756;9.192;2023-03-01T09:26:24;3.80;99.90
11540;DHT22;5826;54.756;9.192;2023-03-01T09:28:52;3.90;99.90
11540;DHT22;5826;54.756;9.192;2023-03-01T09:31:20;4.00;99.90
11540;DHT22;5826;54.756;9.192;2023-03-01T09:33:47;4.00;99.90
11540;DHT22;5826;54.756;9.192;2023-03-01T09:36:16;4.00;99.90
11540;DHT22;5826;54.756;9.192;2023-03-01T09:38:42;4.00;99.90
11540;DHT22;5826;54.756;9.192;2023-03-01T09:43:47;4.00;99.90
11540;DHT22;5826;54.756;9.192;2023-03-01T09:46:14;4.00;99.90
11540;DHT22;5826;54.756;9.192;2023-03-01T09:48:45;4.00;99.90
11540;DHT22;5826;54.756;9.192;2023-03-01T09:51:18;4.00;99.90
11540;DHT22;5826;54.756;9.192;2023-03-01T09:53:44;4.10;99.90
11540;DHT22;5826;54.756;9.192;2023-03-01T09:56:24;4.20;99.90
11540;DHT22;5826;54.756;9.192;2023-03-01T09:59:25;4.20;99.90
11540;DHT22;5826;54.756;9.192;2023-03-01T10:01:59;4.20;99.90
11540;DHT22;5826;54.756;9.192;2023-03-01T10:04:45;4.30;99.90
11540;DHT22;5826;54.756;9.192;2023-03-01T10:07:36;4.30;99.90
11540;DHT22;5826;54.756;9.192;2023-03-01T10:10:08;4.30;99.90
11540;DHT22;5826;54.756;9.192;2023-03-01T10:12:40;4.30;99.90
11540;DHT22;5826;54.756;9.192;2023-03-01T10:15:09;4.30;99.90
11540;DHT22;5826;54.756;9.192;2023-03-01T10:17:51;4.20;99.90
11540;DHT22;5826;54.756;9.192;2023-03-01T10:20:33;4.30;99.90
11540;DHT22;5826;54.756;9.192;2023-03-01T10:23:03;4.30;99.90
11540;DHT22;5826;54.756;9.192;2023-03-01T10:30:41;4.40;99.90
11540;DHT22;5826;54.756;9.192;2023-03-01T10:33:31;4.50;99.90
11540;DHT22;5826;54.756;9.192;2023-03-01T10:35:57;4.50;99.90
11540;DHT22;5826;54.756;9.192;2023-03-01T10:38:23;4.50;99.90
11540;DHT22;5826;54.756;9.192;2023-03-01T10:40:58;4.60;99.90
11540;DHT22;5826;54.756;9.192;2023-03-01T10:43:25;4.60;99.90
11540;DHT22;5826;54.756;9.192;2023-03-01T10:45:51;4.60;99.90
11540;DHT22;5826;54.756;9.192;2023-03-01T10:48:18;4.70;99.90
11540;DHT22;5826;54.756;9.192;2023-03-01T10:51:05;4.80;99.90
11540;DHT22;5826;54.756;9.192;2023-03-01T10:53:37;4.80;99.90
11540;DHT22;5826;54.756;9.192;2023-03-01T10:56:13;4.90;99.90
11540;DHT22;5826;54.756;9.192;2023-03-01T11:01:32;5.00;99.90
11540;DHT22;5826;54.756;9.192;2023-03-01T11:06:31;5.10;99.90
11540;DHT22;5826;54.756;9.192;2023-03-01T11:08:57;5.10;99.90
11540;DHT22;5826;54.756;9.192;2023-03-01T11:11:38;5.10;99.90
11540;DHT22;5826;54.756;9.192;2023-03-01T11:14:14;5.10;99.90
11540;DHT22;5826;54.756;9.192;2023-03-01T11:16:42;5.20;99.90
11540;DHT22;5826;54.756;9.192;2023-03-01T11:21:55;5.20;99.90
11540;DHT22;5826;54.756;9.192;2023-03-01T11:24:29;5.20;99.90
11540;DHT22;5826;54.756;9.192;2023-03-01T11:26:56;5.20;99.90
11540;DHT22;5826;54.756;9.192;2023-03-01T11:29:38;5.20;99.90
11540;DHT22;5826;54.756;9.192;2023-03-01T11:32:08;5.20;99.90
11540;DHT22;5826;54.756;9.192;2023-03-01T11:35:00;5.20;99.90
11540;DHT22;5826;54.756;9.192;2023-03-01T11:37:34;5.20;99.90
11540;DHT22;5826;54.756;9.192;2023-03-01T11:40:09;5.20;99.90
11540;DHT22;5826;54.756;9.192;2023-03-01T11:43:03;5.10;99.90
11540;DHT22;5826;54.756;9.192;2023-03-01T11:48:48;5.20;99.90
11540;DHT22;5826;54.756;9.192;2023-03-01T11:54:01;5.20;99.90
11540;DHT22;5826;54.756;9.192;2023-03-01T11:56:40;5.30;99.90
11540;DHT22;5826;54.756;9.192;2023-03-01T12:01:58;5.40;99.90
11540;DHT22;5826;54.756;9.192;2023-03-01T12:07:41;5.40;99.90
11540;DHT22;5826;54.756;9.192;2023-03-01T12:10:22;5.40;99.90
11540;DHT22;5826;54.756;9.192;2023-03-01T12:13:17;5.40;99.90
11540;DHT22;5826;54.756;9.192;2023-03-01T12:18:35;5.40;99.90
11540;DHT22;5826;54.756;9.192;2023-03-01T12:21:24;5.40;99.90
11540;DHT22;5826;54.756;9.192;2023-03-01T12:26:49;5.40;99.90
11540;DHT22;5826;54.756;9.192;2023-03-01T12:29:43;5.40;99.90
11540;DHT22;5826;54.756;9.192;2023-03-01T12:32:40;5.40;99.90
11540;DHT22;5826;54.756;9.192;2023-03-01T12:35:25;5.50;99.90
11540;DHT22;5826;54.756;9.192;2023-03-01T12:51:28;6.20;99.90
11540;DHT22;5826;54.756;9.192;2023-03-01T12:53:56;6.20;99.90
11540;DHT22;5826;54.756;9.192;2023-03-01T12:56:30;6.20;99.90
11540;DHT22;5826;54.756;9.192;2023-03-01T12:59:21;6.20;99.90
11540;DHT22;5826;54.756;9.192;2023-03-01T13:01:59;6.20;99.90
11540;DHT22;5826;54.756;9.192;2023-03-01T13:07:13;6.20;99.90
11540;DHT22;5826;54.756;9.192;2023-03-01T13:15:34;6.30;99.90
11540;DHT22;5826;54.756;9.192;2023-03-01T13:20:55;6.50;99.90
11540;DHT22;5826;54.756;9.192;2023-03-01T13:26:17;6.50;99.90
11540;DHT22;5826;54.756;9.192;2023-03-01T13:28:47;6.60;99.90
11540;DHT22;5826;54.756;9.192;2023-03-01T13:33:47;6.50;99.90
11540;DHT22;5826;54.756;9.192;2023-03-01T13:44:35;6.40;99.90
11540;DHT22;5826;54.756;9.192;2023-03-01T13:49:49;6.30;99.90
11540;DHT22;5826;54.756;9.192;2023-03-01T13:52:44;6.30;99.90
11540;DHT22;5826;54.756;9.192;2023-03-01T13:57:40;6.20;99.90
11540;DHT22;5826;54.756;9.192;2023-03-01T14:00:24;6.20;99.90
11540;DHT22;5826;54.756;9.192;2023-03-01T14:03:00;6.10;99.90
11540;DHT22;5826;54.756;9.192;2023-03-01T14:05:26;6.10;99.90
11540;DHT22;5826;54.756;9.192;2023-03-01T14:07:51;6.10;99.90
11540;DHT22;5826;54.756;9.192;2023-03-01T14:10:17;6.10;99.90
11540;DHT22;5826;54.756;9.192;2023-03-01T14:15:33;6.10;99.90
11540;DHT22;5826;54.756;9.192;2023-03-01T14:18:15;6.10;99.90
11540;DHT22;5826;54.756;9.192;2023-03-01T14:20:44;6.20;99.90
11540;DHT22;5826;54.756;9.192;2023-03-01T14:23:20;6.20;99.90
11540;DHT22;5826;54.756;9.192;2023-03-01T14:25:57;6.10;99.90
11540;DHT22;5826;54.756;9.192;2023-03-01T14:28:27;6.10;99.90
11540;DHT22;5826;54.756;9.192;2023-03-01T14:30:55;6.00;99.90
11540;DHT22;5826;54.756;9.192;2023-03-01T14:33:30;6.00;99.90
11540;DHT22;5826;54.756;9.192;2023-03-01T14:36:04;6.00;99.90
11540;DHT22;5826;54.756;9.192;2023-03-01T14:38:33;6.20;99.90
11540;DHT22;5826;54.756;9.192;2023-03-01T14:41:03;6.20;99.90
11540;DHT22;5826;54.756;9.192;2023-03-01T14:43:30;6.20;99.90
11540;DHT22;5826;54.756;9.192;2023-03-01T14:45:56;6.30;99.90
11540;DHT22;5826;54.756;9.192;2023-03-01T14:48:22;6.20;99.90
11540;DHT22;5826;54.756;9.192;2023-03-01T14:50:49;6.20;99.90
11540;DHT22;5826;54.756;9.192;2023-03-01T14:53:23;6.20;99.90
11540;DHT22;5826;54.756;9.192;2023-03-01T14:55:55;6.20;99.90
11540;DHT22;5826;54.756;9.192;2023-03-01T14:58:23;6.20;99.90
11540;DHT22;5826;54.756;9.192;2023-03-01T15:00:55;6.20;99.90
11540;DHT22;5826;54.756;9.192;2023-03-01T15:03:34;6.20;99.90
11540;DHT22;5826;54.756;9.192;2023-03-01T15:06:03;6.20;99.90
11540;DHT22;5826;54.756;9.192;2023-03-01T15:08:31;6.20;99.90
11540;DHT22;5826;54.756;9.192;2023-03-01T15:11:29;6.20;99.90
11540;DHT22;5826;54.756;9.192;2023-03-01T15:13:56;6.30;99.90
11540;DHT22;5826;54.756;9.192;2023-03-01T15:16:26;6.30;99.90
11540;DHT22;5826;54.756;9.192;2023-03-01T15:18:55;6.20;99.90
11540;DHT22;5826;54.756;9.192;2023-03-01T15:21:24;6.20;99.90
11540;DHT22;5826;54.756;9.192;2023-03-01T15:23:53;6.10;99.90
11540;DHT22;5826;54.756;9.192;2023-03-01T15:26:43;6.10;99.90
11540;DHT22;5826;54.756;9.192;2023-03-01T15:29:22;6.10;99.90
11540;DHT22;5826;54.756;9.192;2023-03-01T15:32:24;6.20;99.90
11540;DHT22;5826;54.756;9.192;2023-03-01T15:34:51;6.70;99.90
11540;DHT22;5826;54.756;9.192;2023-03-01T15:37:40;7.80;99.90
11540;DHT22;5826;54.756;9.192;2023-03-01T15:40:25;8.90;99.90
11540;DHT22;5826;54.756;9.192;2023-03-01T15:43:00;9.10;99.90
11540;DHT22;5826;54.756;9.192;2023-03-01T15:45:28;9.00;99.90
11540;DHT22;5826;54.756;9.192;2023-03-01T15:47:56;8.80;99.90
11540;DHT22;5826;54.756;9.192;2023-03-01T15:50:29;8.60;99.90
11540;DHT22;5826;54.756;9.192;2023-03-01T15:52:58;8.20;99.90
11540;DHT22;5826;54.756;9.192;2023-03-01T15:55:26;7.80;99.90
11540;DHT22;5826;54.756;9.192;2023-03-01T15:58:09;7.80;99.90
11540;DHT22;5826;54.756;9.192;2023-03-01T16:00:35;7.90;99.90
11540;DHT22;5826;54.756;9.192;2023-03-01T16:03:01;8.40;99.90
11540;DHT22;5826;54.756;9.192;2023-03-01T16:05:30;10.10;99.90
11540;DHT22;5826;54.756;9.192;2023-03-01T16:07:56;11.60;99.90
11540;DHT22;5826;54.756;9.192;2023-03-01T16:10:22;11.90;99.90
11540;DHT22;5826;54.756;9.192;2023-03-01T16:12:49;11.40;99.90
11540;DHT22;5826;54.756;9.192;2023-03-01T16:15:29;10.50;99.90
11540;DHT22;5826;54.756;9.192;2023-03-01T16:17:55;9.70;99.90
11540;DHT22;5826;54.756;9.192;2023-03-01T16:20:22;8.90;99.90
11540;DHT22;5826;54.756;9.192;2023-03-01T16:22:47;8.30;99.90
11540;DHT22;5826;54.756;9.192;2023-03-01T16:25:15;7.90;99.90
11540;DHT22;5826;54.756;9.192;2023-03-01T16:27:46;7.50;99.90
11540;DHT22;5826;54.756;9.192;2023-03-01T16:30:13;7.10;99.90
11540;DHT22;5826;54.756;9.192;2023-03-01T16:32:40;6.90;99.90
11540;DHT22;5826;54.756;9.192;2023-03-01T16:35:07;6.70;99.90
11540;DHT22;5826;54.756;9.192;2023-03-01T16:37:34;6.40;99.90
11540;DHT22;5826;54.756;9.192;2023-03-01T16:39:59;6.30;99.90
11540;DHT22;5826;54.756;9.192;2023-03-01T16:42:25;6.20;99.90
11540;DHT22;5826;54.756;9.192;2023-03-01T16:44:55;6.10;99.90
11540;DHT22;5826;54.756;9.192;2023-03-01T16:47:21;6.00;99.90
11540;DHT22;5826;54.756;9.192;2023-03-01T16:49:47;5.90;99.90
11540;DHT22;5826;54.756;9.192;2023-03-01T16:52:12;5.80;99.90
11540;DHT22;5826;54.756;9.192;2023-03-01T16:54:38;5.80;99.90
11540;DHT22;5826;54.756;9.192;2023-03-01T16:57:03;5.70;99.90
11540;DHT22;5826;54.756;9.192;2023-03-01T16:59:30;5.70;99.90
11540;DHT22;5826;54.756;9.192;2023-03-01T17:01:55;5.60;99.90
11540;DHT22;5826;54.756;9.192;2023-03-01T17:04:21;5.60;99.90
11540;DHT22;5826;54.756;9.192;2023-03-01T17:06:46;5.50;99.90
11540;DHT22;5826;54.756;9.192;2023-03-01T17:09:13;5.40;99.90
11540;DHT22;5826;54.756;9.192;2023-03-01T17:11:39;5.40;99.90
11540;DHT22;5826;54.756;9.192;2023-03-01T17:14:05;5.30;99.90
11540;DHT22;5826;54.756;9.192;2023-03-01T17:16:30;5.30;99.90
11540;DHT22;5826;54.756;9.192;2023-03-01T17:18:56;5.30;99.90
11540;DHT22;5826;54.756;9.192;2023-03-01T17:21:22;5.20;99.90
11540;DHT22;5826;54.756;9.192;2023-03-01T17:23:47;5.10;99.90
11540;DHT22;5826;54.756;9.192;2023-03-01T17:26:15;5.10;99.90
11540;DHT22;5826;54.756;9.192;2023-03-01T17:28:40;5.00;99.90
11540;DHT22;5826;54.756;9.192;2023-03-01T17:31:08;5.00;99.90
11540;DHT22;5826;54.756;9.192;2023-03-01T17:33:34;4.90;99.90
11540;DHT22;5826;54.756;9.192;2023-03-01T17:35:59;4.80;99.90
11540;DHT22;5826;54.756;9.192;2023-03-01T17:38:26;4.80;99.90